createdAt,value
2016-09-06T00:00:25.760Z,0
2016-09-06T00:01:26.019Z,0
2016-09-06T00:02:25.689Z,0
2016-09-06T00:03:25.654Z,0
2016-09-06T00:04:25.926Z,0
2016-09-06T00:05:25.884Z,0
2016-09-06T00:06:25.557Z,0
2016-09-06T00:07:25.822Z,0
2016-09-06T00:08:25.790Z,0
2016-09-06T00:09:25.764Z,0
2016-09-06T00:10:25.727Z,0
2016-09-06T00:11:25.387Z,0
2016-09-06T00:12:25.373Z,0
2016-09-06T00:13:25.016Z,0
2016-09-06T00:14:25.604Z,0
2016-09-06T00:15:25.263Z,0
2016-09-06T00:16:25.227Z,0
2016-09-06T00:17:25.191Z,0
2016-09-06T00:18:25.161Z,0
2016-09-06T00:19:25.442Z,0
2016-09-06T00:20:25.394Z,0
2016-09-06T00:21:25.072Z,0
2016-09-06T00:22:25.335Z,0
2016-09-06T00:23:24.698Z,0
2016-09-06T00:24:24.969Z,0
2016-09-06T00:25:24.925Z,0
2016-09-06T00:26:25.195Z,0
2016-09-06T00:27:25.169Z,0
2016-09-06T00:28:24.822Z,0
2016-09-06T00:29:24.796Z,0
2016-09-06T00:30:24.765Z,0
2016-09-06T00:31:24.726Z,0
2016-09-06T00:32:24.698Z,0
2016-09-06T00:33:24.665Z,0
2016-09-06T00:34:24.627Z,0
2016-09-06T00:35:24.606Z,0
2016-09-06T00:36:24.261Z,0
2016-09-06T00:37:24.225Z,0
2016-09-06T00:38:24.491Z,0
2016-09-06T00:39:24.160Z,0
2016-09-06T00:40:24.421Z,0
2016-09-06T00:41:24.702Z,0
2016-09-06T00:42:24.366Z,0
2016-09-06T00:43:24.640Z,0
2016-09-06T00:44:24.301Z,0
2016-09-06T00:45:23.961Z,0
2016-09-06T00:46:24.528Z,0
2016-09-06T00:47:24.505Z,0
2016-09-06T00:48:24.467Z,0
2016-09-06T00:49:23.830Z,0
2016-09-06T00:50:24.403Z,0
2016-09-06T00:51:24.395Z,0
2016-09-06T00:52:24.340Z,0
2016-09-06T00:53:23.999Z,0
2016-09-06T00:54:23.659Z,0
2016-09-06T00:55:24.237Z,0
2016-09-06T00:56:23.896Z,0
2016-09-06T00:57:24.170Z,0
2016-09-06T00:58:23.829Z,0
2016-09-06T00:59:23.205Z,0
2016-09-06T01:00:23.768Z,0
2016-09-06T01:01:23.735Z,0
2016-09-06T01:02:23.998Z,0
2016-09-06T01:03:23.669Z,0
2016-09-06T01:04:23.933Z,0
2016-09-06T01:05:23.602Z,0
2016-09-06T01:06:23.569Z,0
2016-09-06T01:07:23.853Z,0
2016-09-06T01:08:23.492Z,0
2016-09-06T01:09:23.168Z,0
2016-09-06T01:10:23.434Z,0
2016-09-06T01:11:23.706Z,0
2016-09-06T01:12:23.365Z,0
2016-09-06T01:13:23.642Z,0
2016-09-06T01:14:23.603Z,0
2016-09-06T01:15:23.570Z,0
2016-09-06T01:16:23.535Z,0
2016-09-06T01:17:23.203Z,0
2016-09-06T01:18:23.164Z,0
2016-09-06T01:19:23.139Z,0
2016-09-06T01:20:23.417Z,0
2016-09-06T01:21:23.376Z,0
2016-09-06T01:22:23.334Z,0
2016-09-06T01:23:23.302Z,0
2016-09-06T01:24:22.678Z,0
2016-09-06T01:25:23.242Z,0
2016-09-06T01:26:22.905Z,0
2016-09-06T01:27:22.873Z,0
2016-09-06T01:28:22.837Z,0
2016-09-06T01:29:23.105Z,0
2016-09-06T01:30:23.072Z,0
2016-09-06T01:31:23.048Z,0
2016-09-06T01:32:23.010Z,0
2016-09-06T01:33:22.969Z,0
2016-09-06T01:34:22.938Z,0
2016-09-06T01:35:22.602Z,0
2016-09-06T01:36:22.572Z,0
2016-09-06T01:37:22.831Z,0
2016-09-06T01:38:22.812Z,0
2016-09-06T01:39:22.467Z,0
2016-09-06T01:40:22.742Z,0
2016-09-06T01:41:22.399Z,0
2016-09-06T01:42:22.372Z,0
2016-09-06T01:43:22.338Z,0
2016-09-06T01:44:22.309Z,0
2016-09-06T01:45:22.268Z,0
2016-09-06T01:46:22.546Z,0
2016-09-06T01:47:22.205Z,0
2016-09-06T01:48:21.566Z,0
2016-09-06T01:49:22.440Z,0
2016-09-06T01:50:22.102Z,0
2016-09-06T01:51:22.069Z,0
2016-09-06T01:52:21.734Z,0
2016-09-06T01:53:22.004Z,0
2016-09-06T01:54:22.270Z,0
2016-09-06T01:55:22.242Z,0
2016-09-06T01:56:21.902Z,0
2016-09-06T01:57:22.167Z,0
2016-09-06T01:58:21.834Z,0
2016-09-06T01:59:22.110Z,0
2016-09-06T02:00:22.071Z,0
2016-09-06T02:01:22.048Z,0
2016-09-06T02:02:21.692Z,0
2016-09-06T02:03:21.665Z,0
2016-09-06T02:04:21.932Z,0
2016-09-06T02:05:21.893Z,0
2016-09-06T02:06:21.864Z,0
2016-09-06T02:07:21.834Z,0
2016-09-06T02:08:21.492Z,0
2016-09-06T02:09:21.766Z,0
2016-09-06T02:10:21.731Z,0
2016-09-06T02:11:21.393Z,0
2016-09-06T02:12:21.661Z,0
2016-09-06T02:13:21.026Z,0
2016-09-06T02:14:21.295Z,0
2016-09-06T02:15:21.566Z,0
2016-09-06T02:16:21.525Z,0
2016-09-06T02:17:21.497Z,0
2016-09-06T02:18:20.863Z,0
2016-09-06T02:19:21.428Z,0
2016-09-06T02:20:20.786Z,0
2016-09-06T02:21:21.057Z,0
2016-09-06T02:22:21.324Z,0
2016-09-06T02:23:20.687Z,0
2016-09-06T02:24:21.258Z,0
2016-09-06T02:25:20.918Z,0
2016-09-06T02:26:21.191Z,0
2016-09-06T02:27:20.854Z,0
2016-09-06T02:28:21.118Z,0
2016-09-06T02:29:21.094Z,0
2016-09-06T02:30:20.445Z,0
2016-09-06T02:31:20.717Z,0
2016-09-06T02:32:20.980Z,0
2016-09-06T02:33:20.951Z,0
2016-09-06T02:34:20.623Z,0
2016-09-06T02:35:20.888Z,0
2016-09-06T02:36:20.247Z,0
2016-09-06T02:37:20.526Z,0
2016-09-06T02:38:20.479Z,0
2016-09-06T02:39:20.752Z,0
2016-09-06T02:40:20.722Z,0
2016-09-06T02:41:20.377Z,0
2016-09-06T02:42:20.654Z,0
2016-09-06T02:43:20.613Z,0
2016-09-06T02:44:20.575Z,0
2016-09-06T02:45:20.540Z,0
2016-09-06T02:46:20.504Z,0
2016-09-06T02:47:19.867Z,0
2016-09-06T02:48:20.456Z,0
2016-09-06T02:49:20.410Z,0
2016-09-06T02:50:20.370Z,0
2016-09-06T02:51:19.439Z,0
2016-09-06T02:52:19.706Z,0
2016-09-06T02:53:19.963Z,0
2016-09-06T02:54:20.238Z,0
2016-09-06T02:55:19.900Z,0
2016-09-06T02:56:19.559Z,0
2016-09-06T02:57:20.147Z,0
2016-09-06T02:58:19.798Z,0
2016-09-06T02:59:20.077Z,0
2016-09-06T03:00:19.722Z,0
2016-09-06T03:01:19.703Z,0
2016-09-06T03:02:19.661Z,0
2016-09-06T03:03:19.640Z,0
2016-09-06T03:04:19.587Z,0
2016-09-06T03:05:19.859Z,0
2016-09-06T03:06:19.833Z,0
2016-09-06T03:07:19.783Z,0
2016-09-06T03:08:19.446Z,0
2016-09-06T03:09:19.732Z,0
2016-09-06T03:10:19.680Z,0
2016-09-06T03:11:19.649Z,0
2016-09-06T03:12:19.611Z,0
2016-09-06T03:13:19.580Z,0
2016-09-06T03:14:19.547Z,0
2016-09-06T03:15:19.211Z,0
2016-09-06T03:16:19.176Z,0
2016-09-06T03:17:19.444Z,0
2016-09-06T03:18:19.108Z,0
2016-09-06T03:19:19.386Z,0
2016-09-06T03:20:19.342Z,0
2016-09-06T03:21:18.714Z,0
2016-09-06T03:22:18.973Z,0
2016-09-06T03:23:18.944Z,0
2016-09-06T03:24:18.596Z,0
2016-09-06T03:25:19.171Z,0
2016-09-06T03:26:18.831Z,0
2016-09-06T03:27:18.795Z,0
2016-09-06T03:28:19.061Z,0
2016-09-06T03:29:18.730Z,0
2016-09-06T03:30:19.000Z,0
2016-09-06T03:31:18.359Z,0
2016-09-06T03:32:18.624Z,0
2016-09-06T03:33:18.591Z,0
2016-09-06T03:34:18.250Z,0
2016-09-06T03:35:18.829Z,0
2016-09-06T03:36:18.479Z,0
2016-09-06T03:37:18.455Z,0
2016-09-06T03:38:18.723Z,0
2016-09-06T03:39:18.686Z,0
2016-09-06T03:40:18.658Z,0
2016-09-06T03:41:18.317Z,0
2016-09-06T03:42:18.279Z,0
2016-09-06T03:43:18.244Z,0
2016-09-06T03:44:18.212Z,0
2016-09-06T03:45:18.173Z,0
2016-09-06T03:46:18.449Z,0
2016-09-06T03:47:17.801Z,0
2016-09-06T03:48:18.372Z,0
2016-09-06T03:49:18.034Z,0
2016-09-06T03:50:17.996Z,0
2016-09-06T03:51:18.268Z,0
2016-09-06T03:52:18.232Z,0
2016-09-06T03:53:17.905Z,0
2016-09-06T03:54:17.865Z,0
2016-09-06T03:55:18.124Z,0
2016-09-06T03:56:17.794Z,0
2016-09-06T03:57:17.457Z,0
2016-09-06T03:58:17.723Z,0
2016-09-06T03:59:17.383Z,0
2016-09-06T04:00:17.655Z,0
2016-09-06T04:01:17.316Z,0
2016-09-06T04:02:17.890Z,0
2016-09-06T04:03:17.851Z,0
2016-09-06T04:04:17.526Z,0
2016-09-06T04:05:17.780Z,0
2016-09-06T04:06:17.141Z,0
2016-09-06T04:07:17.704Z,0
2016-09-06T04:08:17.374Z,0
2016-09-06T04:09:17.634Z,0
2016-09-06T04:10:17.303Z,0
2016-09-06T04:11:17.268Z,0
2016-09-06T04:12:17.234Z,0
2016-09-06T04:13:17.202Z,0
2016-09-06T04:14:17.466Z,0
2016-09-06T04:15:17.431Z,4
2016-09-06T04:16:17.402Z,4
2016-09-06T04:17:16.762Z,0
2016-09-06T04:18:17.337Z,4
2016-09-06T04:19:17.002Z,4
2016-09-06T04:20:16.948Z,4
2016-09-06T04:21:17.253Z,8
2016-09-06T04:22:16.882Z,8
2016-09-06T04:23:16.852Z,8
2016-09-06T04:24:16.516Z,12
2016-09-06T04:25:17.091Z,16
2016-09-06T04:26:16.444Z,16
2016-09-06T04:27:17.011Z,20
2016-09-06T04:28:16.674Z,24
2016-09-06T04:29:16.945Z,32
2016-09-06T04:30:16.914Z,36
2016-09-06T04:31:16.881Z,44
2016-09-06T04:32:16.232Z,52
2016-09-06T04:33:16.509Z,60
2016-09-06T04:34:16.467Z,72
2016-09-06T04:35:16.732Z,84
2016-09-06T04:36:16.394Z,96
2016-09-06T04:37:16.665Z,112
2016-09-06T04:38:16.627Z,128
2016-09-06T04:39:15.985Z,148
2016-09-06T04:40:16.259Z,164
2016-09-06T04:41:16.525Z,188
2016-09-06T04:42:16.180Z,212
2016-09-06T04:43:16.153Z,240
2016-09-06T04:44:16.415Z,268
2016-09-06T04:45:16.385Z,300
2016-09-06T04:46:16.348Z,332
2016-09-06T04:47:16.014Z,364
2016-09-06T04:48:15.981Z,396
2016-09-06T04:49:16.239Z,432
2016-09-06T04:50:15.898Z,468
2016-09-06T04:51:15.880Z,504
2016-09-06T04:52:15.831Z,544
2016-09-06T04:53:15.799Z,580
2016-09-06T04:54:15.755Z,620
2016-09-06T04:55:16.037Z,656
2016-09-06T04:56:15.995Z,700
2016-09-06T04:57:15.663Z,736
2016-09-06T04:58:15.923Z,780
2016-09-06T04:59:15.893Z,824
2016-09-06T05:00:15.547Z,872
2016-09-06T05:01:15.821Z,916
2016-09-06T05:02:15.781Z,976
2016-09-06T05:03:15.756Z,1040
2016-09-06T05:04:15.408Z,1120
2016-09-06T05:05:15.074Z,1216
2016-09-06T05:06:15.638Z,1336
2016-09-06T05:07:15.013Z,1464
2016-09-06T05:08:15.577Z,1616
2016-09-06T05:09:15.541Z,1764
2016-09-06T05:10:14.904Z,1916
2016-09-06T05:11:15.167Z,2064
2016-09-06T05:12:15.431Z,2212
2016-09-06T05:13:15.415Z,2352
2016-09-06T05:14:15.068Z,2492
2016-09-06T05:15:15.339Z,2620
2016-09-06T05:16:15.288Z,2748
2016-09-06T05:17:14.964Z,2880
2016-09-06T05:18:15.224Z,3020
2016-09-06T05:19:15.183Z,3184
2016-09-06T05:20:14.852Z,3356
2016-09-06T05:21:15.115Z,3552
2016-09-06T05:22:15.078Z,3768
2016-09-06T05:23:14.749Z,4000
2016-09-06T05:24:15.015Z,4292
2016-09-06T05:25:14.676Z,4764
2016-09-06T05:26:14.941Z,5260
2016-09-06T05:27:14.906Z,5540
2016-09-06T05:28:14.872Z,5800
2016-09-06T05:29:14.529Z,6032
2016-09-06T05:30:13.894Z,6256
2016-09-06T05:31:14.464Z,6436
2016-09-06T05:32:14.732Z,6604
2016-09-06T05:33:14.393Z,6752
2016-09-06T05:34:14.374Z,7004
2016-09-06T05:35:14.629Z,7336
2016-09-06T05:36:14.599Z,7620
2016-09-06T05:37:14.261Z,7936
2016-09-06T05:38:14.530Z,8196
2016-09-06T05:39:14.194Z,8504
2016-09-06T05:40:13.869Z,9716
2016-09-06T05:41:14.440Z,12212
2016-09-06T05:42:14.092Z,15040
2016-09-06T05:43:14.356Z,15648
2016-09-06T05:44:14.027Z,16000
2016-09-06T05:45:13.997Z,10328
2016-09-06T05:46:13.964Z,12112
2016-09-06T05:47:13.941Z,11876
2016-09-06T05:48:13.606Z,9248
2016-09-06T05:49:13.561Z,7712
2016-09-06T05:50:13.839Z,7300
2016-09-06T05:51:14.103Z,6660
2016-09-06T05:52:14.075Z,7016
2016-09-06T05:53:14.044Z,7636
2016-09-06T05:54:14.006Z,7940
2016-09-06T05:55:13.383Z,8988
2016-09-06T05:56:13.639Z,9920
2016-09-06T05:57:13.012Z,8364
2016-09-06T05:58:13.578Z,15040
2016-09-06T05:59:13.545Z,20512
2016-09-06T06:00:13.822Z,17440
2016-09-06T06:01:13.784Z,12552
2016-09-06T06:02:13.754Z,14388
2016-09-06T06:03:13.419Z,10832
2016-09-06T06:04:13.688Z,8824
2016-09-06T06:05:13.353Z,7852
2016-09-06T06:06:13.621Z,6860
2016-09-06T06:07:13.737Z,6736
2016-09-06T06:08:13.569Z,7252
2016-09-06T06:09:13.227Z,7852
2016-09-06T06:10:13.203Z,8496
2016-09-06T06:11:13.167Z,9084
2016-09-06T06:12:13.440Z,10556
2016-09-06T06:13:13.401Z,11100
2016-09-06T06:14:13.372Z,11060
2016-09-06T06:15:13.346Z,11148
2016-09-06T06:16:13.304Z,11420
2016-09-06T06:17:12.974Z,11948
2016-09-06T06:18:13.244Z,12092
2016-09-06T06:19:12.909Z,12244
2016-09-06T06:20:12.883Z,13304
2016-09-06T06:21:12.543Z,14400
2016-09-06T06:22:12.816Z,15668
2016-09-06T06:23:12.790Z,15912
2016-09-06T06:24:13.056Z,17888
2016-09-06T06:25:13.032Z,31136
2016-09-06T06:26:12.690Z,24608
2016-09-06T06:27:12.663Z,23008
2016-09-06T06:28:12.631Z,35584
2016-09-06T06:29:12.896Z,47616
2016-09-06T06:30:12.562Z,22144
2016-09-06T06:31:12.254Z,21024
2016-09-06T06:32:12.502Z,24288
2016-09-06T06:33:12.779Z,22944
2016-09-06T06:34:12.745Z,29024
2016-09-06T06:35:12.413Z,34304
2016-09-06T06:36:12.689Z,40736
2016-09-06T06:37:12.667Z,38432
2016-09-06T06:38:12.326Z,34080
2016-09-06T06:39:12.600Z,35648
2016-09-06T06:40:12.565Z,31712
2016-09-06T06:41:12.536Z,31072
2016-09-06T06:42:12.518Z,36096
2016-09-06T06:43:12.487Z,54240
2016-09-06T06:44:12.473Z,52224
2016-09-06T06:45:12.420Z,47200
2016-09-06T06:46:12.100Z,58784
2016-09-06T06:47:12.072Z,59072
2016-09-06T06:48:12.349Z,65440
2016-09-06T06:49:12.324Z,64768
2016-09-06T06:50:11.989Z,63072
2016-09-06T06:51:11.966Z,65280
2016-09-06T06:52:12.247Z,67136
2016-09-06T06:53:12.219Z,67296
2016-09-06T06:54:11.894Z,68192
2016-09-06T06:55:12.163Z,67264
2016-09-06T06:56:11.537Z,66016
2016-09-06T06:57:12.120Z,67776
2016-09-06T06:58:11.786Z,68544
2016-09-06T06:59:12.069Z,68992
2016-09-06T07:00:12.043Z,73760
2016-09-06T07:01:11.416Z,75232
2016-09-06T07:02:12.006Z,76032
2016-09-06T07:03:11.398Z,74720
2016-09-06T07:04:11.946Z,74976
2016-09-06T07:05:11.921Z,73952
2016-09-06T07:06:11.593Z,73248
2016-09-06T07:07:11.888Z,74400
2016-09-06T07:08:11.845Z,76992
2016-09-06T07:09:11.530Z,79392
2016-09-06T07:10:11.498Z,78944
2016-09-06T07:11:11.781Z,77920
2016-09-06T07:12:11.760Z,76384
2016-09-06T07:13:11.133Z,74464
2016-09-06T07:14:11.711Z,78784
2016-09-06T07:15:11.385Z,77120
2016-09-06T07:16:11.370Z,76768
2016-09-06T07:17:11.644Z,80096
2016-09-06T07:18:11.625Z,80192
2016-09-06T07:19:11.604Z,77248
2016-09-06T07:20:11.577Z,76608
2016-09-06T07:21:11.556Z,77920
2016-09-06T07:22:11.525Z,77696
2016-09-06T07:23:11.510Z,75840
2016-09-06T07:24:11.197Z,76416
2016-09-06T07:25:11.168Z,79616
2016-09-06T07:26:11.458Z,79936
2016-09-06T07:27:11.121Z,79008
2016-09-06T07:28:11.400Z,80672
2016-09-06T07:29:11.080Z,82400
2016-09-06T07:30:10.754Z,79456
2016-09-06T07:31:10.735Z,79392
2016-09-06T07:32:11.017Z,81312
2016-09-06T07:33:11.001Z,82144
2016-09-06T07:34:10.977Z,82624
2016-09-06T07:35:11.264Z,81664
2016-09-06T07:36:10.937Z,80608
2016-09-06T07:37:11.212Z,81760
2016-09-06T07:38:11.211Z,83584
2016-09-06T07:39:11.173Z,82560
2016-09-06T07:40:10.550Z,74944
2016-09-06T07:41:10.835Z,77824
2016-09-06T07:42:11.119Z,71360
2016-09-06T07:43:11.094Z,84800
2016-09-06T07:44:10.766Z,81824
2016-09-06T07:45:11.055Z,57760
2016-09-06T07:46:11.038Z,77760
2016-09-06T07:47:11.015Z,65792
2016-09-06T07:48:10.699Z,80864
2016-09-06T07:49:10.993Z,81760
2016-09-06T07:50:10.958Z,82528
2016-09-06T07:51:10.932Z,80960
2016-09-06T07:52:10.617Z,77408
2016-09-06T07:53:10.906Z,78624
2016-09-06T07:54:10.886Z,80704
2016-09-06T07:55:10.868Z,78112
2016-09-06T07:56:10.235Z,81088
2016-09-06T07:57:10.815Z,70848
2016-09-06T07:58:10.801Z,48992
2016-09-06T07:59:10.176Z,31584
2016-09-06T08:00:10.460Z,29696
2016-09-06T08:01:10.446Z,29312
2016-09-06T08:02:10.724Z,29056
2016-09-06T08:03:10.710Z,29120
2016-09-06T08:04:10.702Z,29248
2016-09-06T08:05:10.072Z,29568
2016-09-06T08:06:10.646Z,30144
2016-09-06T08:07:10.624Z,30912
2016-09-06T08:08:10.305Z,32736
2016-09-06T08:09:10.583Z,35648
2016-09-06T08:10:09.958Z,32256
2016-09-06T08:11:09.943Z,33824
2016-09-06T08:12:09.925Z,31744
2016-09-06T08:13:10.198Z,30720
2016-09-06T08:14:10.499Z,30240
2016-09-06T08:15:09.568Z,30112
2016-09-06T08:16:10.459Z,30112
2016-09-06T08:17:10.218Z,30240
2016-09-06T08:18:10.104Z,30432
2016-09-06T08:19:09.790Z,30592
2016-09-06T08:20:10.076Z,30944
2016-09-06T08:21:10.357Z,31232
2016-09-06T08:22:09.734Z,32224
2016-09-06T08:23:10.023Z,37920
2016-09-06T08:24:09.688Z,60160
2016-09-06T08:25:10.283Z,82048
2016-09-06T08:26:10.262Z,84416
2016-09-06T08:27:10.243Z,86272
2016-09-06T08:28:09.621Z,89568
2016-09-06T08:29:10.219Z,90496
2016-09-06T08:30:10.205Z,90976
2016-09-06T08:31:10.173Z,89568
2016-09-06T08:32:09.877Z,89856
2016-09-06T08:33:09.532Z,90880
2016-09-06T08:34:09.812Z,95008
2016-09-06T08:35:09.492Z,95936
2016-09-06T08:36:09.783Z,94304
2016-09-06T08:37:09.447Z,94048
2016-09-06T08:38:09.145Z,90208
2016-09-06T08:39:09.421Z,92000
2016-09-06T08:40:09.099Z,94688
2016-09-06T08:41:09.678Z,91488
2016-09-06T08:42:09.664Z,92480
2016-09-06T08:43:09.647Z,94112
2016-09-06T08:44:09.960Z,90880
2016-09-06T08:45:09.914Z,89824
2016-09-06T08:46:09.899Z,92000
2016-09-06T08:47:09.569Z,96224
2016-09-06T08:48:09.549Z,92192
2016-09-06T08:49:09.533Z,86784
2016-09-06T08:50:09.510Z,87552
2016-09-06T08:51:09.499Z,93504
2016-09-06T08:52:09.474Z,100096
2016-09-06T08:53:09.475Z,107424
2016-09-06T08:54:09.435Z,116640
2016-09-06T08:55:09.723Z,126592
2016-09-06T08:56:09.091Z,113760
2016-09-06T08:57:08.776Z,101760
2016-09-06T08:58:09.663Z,103296
2016-09-06T08:59:09.645Z,104544
2016-09-06T09:00:09.322Z,102176
2016-09-06T09:01:09.609Z,100224
2016-09-06T09:02:08.679Z,100352
2016-09-06T09:03:09.263Z,102912
2016-09-06T09:04:09.250Z,108928
2016-09-06T09:05:09.521Z,110368
2016-09-06T09:06:09.207Z,107168
2016-09-06T09:07:09.035Z,107840
2016-09-06T09:08:08.863Z,106688
2016-09-06T09:09:09.146Z,105536
2016-09-06T09:10:09.428Z,109184
2016-09-06T09:11:09.124Z,112608
2016-09-06T09:12:09.389Z,117248
2016-09-06T09:13:09.072Z,119168
2016-09-06T09:14:09.351Z,114176
2016-09-06T09:15:09.331Z,118368
2016-09-06T09:16:09.303Z,122752
2016-09-06T09:17:08.998Z,113056
2016-09-06T09:18:08.971Z,24960
2016-09-06T09:19:08.954Z,111680
2016-09-06T09:20:08.933Z,115488
2016-09-06T09:21:08.916Z,133280
2016-09-06T09:22:08.893Z,127040
2016-09-06T09:23:08.867Z,97376
2016-09-06T09:24:09.157Z,102912
2016-09-06T09:25:08.841Z,27872
2016-09-06T09:26:09.313Z,79584
2016-09-06T09:27:08.791Z,21760
2016-09-06T09:28:09.073Z,20032
2016-09-06T09:29:09.059Z,108992
2016-09-06T09:30:09.034Z,102240
2016-09-06T09:31:09.024Z,107424
2016-09-06T09:32:08.697Z,104928
2016-09-06T09:33:08.674Z,103936
2016-09-06T09:34:08.950Z,102496
2016-09-06T09:35:08.622Z,101440
2016-09-06T09:36:08.607Z,117504
2016-09-06T09:37:08.578Z,142784
2016-09-06T09:38:08.868Z,155936
2016-09-06T09:39:08.541Z,142304
2016-09-06T09:40:08.527Z,111456
2016-09-06T09:41:08.799Z,78688
2016-09-06T09:42:08.789Z,67776
2016-09-06T09:43:08.774Z,64672
2016-09-06T09:44:08.441Z,62528
2016-09-06T09:45:08.726Z,61056
2016-09-06T09:46:08.708Z,61184
2016-09-06T09:47:08.397Z,59552
2016-09-06T09:48:08.660Z,58304
2016-09-06T09:49:08.659Z,61728
2016-09-06T09:50:08.019Z,66112
2016-09-06T09:51:08.600Z,67968
2016-09-06T09:52:08.298Z,69024
2016-09-06T09:53:08.570Z,70368
2016-09-06T09:54:07.941Z,70688
2016-09-06T09:55:08.228Z,74368
2016-09-06T09:56:07.900Z,81248
2016-09-06T09:57:08.491Z,83776
2016-09-06T09:58:08.169Z,82336
2016-09-06T09:59:08.455Z,77792
2016-09-06T10:00:08.442Z,77504
2016-09-06T10:01:07.811Z,84192
2016-09-06T10:02:08.400Z,90048
2016-09-06T10:03:08.081Z,91200
2016-09-06T10:04:08.388Z,91584
2016-09-06T10:05:08.036Z,97344
2016-09-06T10:06:07.715Z,96928
2016-09-06T10:07:07.698Z,93536
2016-09-06T10:08:07.982Z,98592
2016-09-06T10:09:07.962Z,98464
2016-09-06T10:10:08.252Z,97216
2016-09-06T10:11:08.227Z,98880
2016-09-06T10:12:07.900Z,75552
2016-09-06T10:13:07.586Z,38016
2016-09-06T10:14:07.568Z,46112
2016-09-06T10:15:08.157Z,29760
2016-09-06T10:16:07.536Z,25184
2016-09-06T10:17:07.809Z,20992
2016-09-06T10:18:07.786Z,20480
2016-09-06T10:19:08.068Z,20224
2016-09-06T10:20:08.049Z,20160
2016-09-06T10:21:07.725Z,55648
2016-09-06T10:22:07.709Z,88224
2016-09-06T10:23:07.381Z,103744
2016-09-06T10:24:07.376Z,104736
2016-09-06T10:25:07.340Z,105664
2016-09-06T10:26:07.923Z,100032
2016-09-06T10:27:07.297Z,83552
2016-09-06T10:28:07.881Z,52128
2016-09-06T10:29:07.561Z,39712
2016-09-06T10:30:07.538Z,39392
2016-09-06T10:31:07.523Z,39776
2016-09-06T10:32:07.790Z,39328
2016-09-06T10:33:07.487Z,38080
2016-09-06T10:34:07.771Z,35808
2016-09-06T10:35:07.131Z,30496
2016-09-06T10:36:07.108Z,27648
2016-09-06T10:37:07.698Z,28704
2016-09-06T10:38:07.067Z,28736
2016-09-06T10:39:07.350Z,31360
2016-09-06T10:40:07.321Z,34816
2016-09-06T10:41:07.324Z,39904
2016-09-06T10:42:07.589Z,41696
2016-09-06T10:43:07.569Z,39968
2016-09-06T10:44:07.242Z,33536
2016-09-06T10:45:06.926Z,31392
2016-09-06T10:46:07.204Z,32576
2016-09-06T10:47:07.187Z,25856
2016-09-06T10:48:07.469Z,37600
2016-09-06T10:49:06.842Z,44448
2016-09-06T10:50:07.131Z,47296
2016-09-06T10:51:06.498Z,47712
2016-09-06T10:52:07.387Z,42976
2016-09-06T10:53:06.764Z,51936
2016-09-06T10:54:06.734Z,78496
2016-09-06T10:55:07.325Z,24192
2016-09-06T10:56:06.703Z,92992
2016-09-06T10:57:06.983Z,100928
2016-09-06T10:58:06.659Z,23328
2016-09-06T10:59:06.941Z,13688
2016-09-06T11:00:07.219Z,12760
2016-09-06T11:01:07.204Z,10184
2016-09-06T11:02:06.877Z,8456
2016-09-06T11:03:06.860Z,7440
2016-09-06T11:04:06.536Z,7716
2016-09-06T11:05:07.122Z,9316
2016-09-06T11:06:07.102Z,81792
2016-09-06T11:07:06.468Z,79104
2016-09-06T11:08:07.068Z,75296
2016-09-06T11:09:06.729Z,74976
2016-09-06T11:10:06.409Z,76512
2016-09-06T11:11:06.380Z,62656
2016-09-06T11:12:06.660Z,29568
2016-09-06T11:13:06.943Z,20864
2016-09-06T11:14:06.940Z,20544
2016-09-06T11:15:06.590Z,20672
2016-09-06T11:16:06.876Z,20800
2016-09-06T11:17:06.853Z,20736
2016-09-06T11:18:05.927Z,21792
2016-09-06T11:19:06.510Z,23136
2016-09-06T11:20:06.177Z,21440
2016-09-06T11:21:06.156Z,13164
2016-09-06T11:22:06.743Z,13116
2016-09-06T11:23:06.724Z,13880
2016-09-06T11:24:06.401Z,15156
2016-09-06T11:25:06.674Z,16944
2016-09-06T11:26:06.343Z,13864
2016-09-06T11:27:06.030Z,11992
2016-09-06T11:28:05.693Z,11228
2016-09-06T11:29:06.576Z,11444
2016-09-06T11:30:05.954Z,11224
2016-09-06T11:31:06.535Z,11148
2016-09-06T11:32:05.599Z,11484
2016-09-06T11:33:05.878Z,11340
2016-09-06T11:34:06.148Z,11460
2016-09-06T11:35:06.128Z,15932
2016-09-06T11:36:06.104Z,14804
2016-09-06T11:37:05.776Z,13104
2016-09-06T11:38:06.054Z,9480
2016-09-06T11:39:06.029Z,10652
2016-09-06T11:40:05.701Z,12140
2016-09-06T11:41:06.281Z,10820
2016-09-06T11:42:05.648Z,11708
2016-09-06T11:43:05.930Z,11168
2016-09-06T11:44:05.299Z,11048
2016-09-06T11:45:05.575Z,10556
2016-09-06T11:46:06.152Z,9204
2016-09-06T11:47:05.810Z,9352
2016-09-06T11:48:06.101Z,10852
2016-09-06T11:49:05.461Z,11096
2016-09-06T11:50:06.043Z,10844
2016-09-06T11:51:06.006Z,10580
2016-09-06T11:52:05.690Z,10924
2016-09-06T11:53:05.958Z,11412
2016-09-06T11:54:05.338Z,11532
2016-09-06T11:55:05.914Z,11500
2016-09-06T11:56:05.279Z,11236
2016-09-06T11:57:05.553Z,10936
2016-09-06T11:58:05.224Z,10180
2016-09-06T11:59:05.497Z,9528
2016-09-06T12:00:05.792Z,9124
2016-09-06T12:01:05.451Z,9040
2016-09-06T12:02:05.719Z,9096
2016-09-06T12:03:05.086Z,8924
2016-09-06T12:04:05.360Z,8804
2016-09-06T12:05:05.638Z,8540
2016-09-06T12:06:04.702Z,8500
2016-09-06T12:07:05.280Z,8516
2016-09-06T12:08:05.548Z,8644
2016-09-06T12:09:04.928Z,8788
2016-09-06T12:10:05.499Z,8780
2016-09-06T12:11:05.172Z,8944
2016-09-06T12:12:05.142Z,9148
2016-09-06T12:13:05.422Z,9248
2016-09-06T12:14:05.085Z,9512
2016-09-06T12:15:05.060Z,9328
2016-09-06T12:16:05.029Z,9220
2016-09-06T12:17:05.005Z,8960
2016-09-06T12:18:04.977Z,8692
2016-09-06T12:19:04.951Z,8680
2016-09-06T12:20:04.920Z,8596
2016-09-06T12:21:04.887Z,8448
2016-09-06T12:22:04.563Z,8212
2016-09-06T12:23:05.142Z,8376
2016-09-06T12:24:04.813Z,8652
2016-09-06T12:25:04.475Z,8916
2016-09-06T12:26:05.080Z,9032
2016-09-06T12:27:04.722Z,8972
2016-09-06T12:28:04.094Z,8836
2016-09-06T12:29:04.363Z,9052
2016-09-06T12:30:04.642Z,9160
2016-09-06T12:31:04.920Z,9272
2016-09-06T12:32:03.978Z,9676
2016-09-06T12:33:03.951Z,10092
2016-09-06T12:34:04.839Z,10056
2016-09-06T12:35:04.504Z,8232
2016-09-06T12:36:04.774Z,7768
2016-09-06T12:37:04.754Z,7828
2016-09-06T12:38:04.714Z,7320
2016-09-06T12:39:04.394Z,7352
2016-09-06T12:40:04.363Z,7740
2016-09-06T12:41:04.332Z,8456
2016-09-06T12:42:04.605Z,8948
2016-09-06T12:43:04.279Z,8928
2016-09-06T12:44:04.547Z,8624
2016-09-06T12:45:04.222Z,8216
2016-09-06T12:46:04.502Z,8472
2016-09-06T12:47:03.868Z,8748
2016-09-06T12:48:04.142Z,8788
2016-09-06T12:49:04.120Z,9116
2016-09-06T12:50:03.776Z,9328
2016-09-06T12:51:04.356Z,8808
2016-09-06T12:52:04.338Z,8452
2016-09-06T12:53:04.301Z,8184
2016-09-06T12:54:04.268Z,7656
2016-09-06T12:55:04.242Z,8292
2016-09-06T12:56:03.913Z,8712
2016-09-06T12:57:04.192Z,8900
2016-09-06T12:58:04.161Z,8480
2016-09-06T12:59:03.828Z,8280
2016-09-06T13:00:04.330Z,8128
2016-09-06T13:01:04.080Z,7992
2016-09-06T13:02:04.047Z,8140
2016-09-06T13:03:03.411Z,8216
2016-09-06T13:04:03.995Z,8312
2016-09-06T13:05:03.666Z,8164
2016-09-06T13:06:03.942Z,7904
2016-09-06T13:07:03.306Z,7744
2016-09-06T13:08:03.876Z,7448
2016-09-06T13:09:03.862Z,7152
2016-09-06T13:10:03.823Z,7268
2016-09-06T13:11:02.893Z,7264
2016-09-06T13:12:03.772Z,7380
2016-09-06T13:13:03.736Z,7508
2016-09-06T13:14:03.411Z,7716
2016-09-06T13:15:03.683Z,7248
2016-09-06T13:16:03.659Z,6820
2016-09-06T13:17:03.627Z,6884
2016-09-06T13:18:03.299Z,7080
2016-09-06T13:19:03.564Z,7048
2016-09-06T13:20:03.238Z,7076
2016-09-06T13:21:03.514Z,7384
2016-09-06T13:22:03.187Z,7688
2016-09-06T13:23:02.850Z,8000
2016-09-06T13:24:02.825Z,8268
2016-09-06T13:25:02.797Z,8856
2016-09-06T13:26:03.089Z,8792
2016-09-06T13:27:03.345Z,8900
2016-09-06T13:28:03.016Z,9584
2016-09-06T13:29:03.292Z,9552
2016-09-06T13:30:03.267Z,9700
2016-09-06T13:31:03.233Z,9072
2016-09-06T13:32:03.213Z,8548
2016-09-06T13:33:02.874Z,7980